Terminal Aerodrome Forecast
Issued by NWS Hastings, NE

Home | Current Version | Previous Version | Text Only | Print | Product List | Glossary On
Versions: 1 2 3 4 5 6 7 8 9 10 11 12 13 14 15 16
347
FTUS45 KGID 220532
TAFEAR
TAF
KEAR 220532Z 2206/2306 03022G30KT 6SM BR OVC005
     FM220900 36025G33KT 1 1/2SM -SN OVC005
     FM221100 35029G41KT 1/4SM +SN BLSN OVC005
     FM221700 34027G37KT 3/4SM BLSN BKN015
     FM222100 33026G36KT 5SM BLSN SCT130
     FM230100 32018KT P6SM FEW250=

USA.gov is the U.S. government's official web portal to all federal, state and local government web resources and services.